sensor_id;sensor_type;location;lat;lon;timestamp;P1;durP1;ratioP1;P2;durP2;ratioP2
24801;SDS011;12898;50.520;12.152;2023-06-22T00:02:17;18.35;;;14.70;;
24801;SDS011;12898;50.520;12.152;2023-06-22T00:04:43;20.17;;;15.43;;
24801;SDS011;12898;50.520;12.152;2023-06-22T00:07:09;18.67;;;15.35;;
24801;SDS011;12898;50.520;12.152;2023-06-22T00:09:35;17.95;;;13.77;;
24801;SDS011;12898;50.520;12.152;2023-06-22T00:12:01;17.48;;;14.52;;
24801;SDS011;12898;50.520;12.152;2023-06-22T00:14:27;17.23;;;13.23;;
24801;SDS011;12898;50.520;12.152;2023-06-22T00:16:53;17.35;;;14.13;;
24801;SDS011;12898;50.520;12.152;2023-06-22T00:19:22;18.20;;;14.98;;
24801;SDS011;12898;50.520;12.152;2023-06-22T00:21:48;18.02;;;14.70;;
24801;SDS011;12898;50.520;12.152;2023-06-22T00:24:17;17.90;;;14.20;;
24801;SDS011;12898;50.520;12.152;2023-06-22T00:26:49;17.60;;;14.45;;
24801;SDS011;12898;50.520;12.152;2023-06-22T00:29:15;19.60;;;14.25;;
24801;SDS011;12898;50.520;12.152;2023-06-22T00:31:40;19.38;;;14.25;;
24801;SDS011;12898;50.520;12.152;2023-06-22T00:34:06;17.70;;;13.45;;
24801;SDS011;12898;50.520;12.152;2023-06-22T00:36:33;17.15;;;13.52;;
24801;SDS011;12898;50.520;12.152;2023-06-22T00:39:00;18.77;;;15.23;;
24801;SDS011;12898;50.520;12.152;2023-06-22T00:41:25;17.58;;;13.98;;
24801;SDS011;12898;50.520;12.152;2023-06-22T00:43:53;18.90;;;14.13;;
24801;SDS011;12898;50.520;12.152;2023-06-22T00:46:19;20.15;;;15.13;;
24801;SDS011;12898;50.520;12.152;2023-06-22T00:48:47;17.45;;;14.35;;
24801;SDS011;12898;50.520;12.152;2023-06-22T00:51:14;18.35;;;14.60;;
24801;SDS011;12898;50.520;12.152;2023-06-22T00:53:39;17.05;;;13.88;;
24801;SDS011;12898;50.520;12.152;2023-06-22T00:56:07;17.23;;;14.00;;
24801;SDS011;12898;50.520;12.152;2023-06-22T00:58:33;17.48;;;13.32;;
24801;SDS011;12898;50.520;12.152;2023-06-22T01:01:01;17.95;;;14.20;;
24801;SDS011;12898;50.520;12.152;2023-06-22T01:03:27;17.92;;;14.43;;
24801;SDS011;12898;50.520;12.152;2023-06-22T01:05:53;17.42;;;13.90;;
24801;SDS011;12898;50.520;12.152;2023-06-22T01:08:38;18.15;;;13.07;;
24801;SDS011;12898;50.520;12.152;2023-06-22T01:16:47;17.55;;;14.13;;
24801;SDS011;12898;50.520;12.152;2023-06-22T01:22:07;17.83;;;13.48;;
24801;SDS011;12898;50.520;12.152;2023-06-22T01:27:36;17.35;;;14.20;;
24801;SDS011;12898;50.520;12.152;2023-06-22T01:30:32;17.80;;;13.63;;
24801;SDS011;12898;50.520;12.152;2023-06-22T01:33:04;17.83;;;14.02;;
24801;SDS011;12898;50.520;12.152;2023-06-22T01:35:31;17.77;;;14.13;;
24801;SDS011;12898;50.520;12.152;2023-06-22T01:37:57;17.77;;;13.48;;
24801;SDS011;12898;50.520;12.152;2023-06-22T01:40:23;17.23;;;13.80;;
24801;SDS011;12898;50.520;12.152;2023-06-22T01:42:50;17.63;;;13.98;;
24801;SDS011;12898;50.520;12.152;2023-06-22T01:45:16;18.20;;;13.95;;
24801;SDS011;12898;50.520;12.152;2023-06-22T01:47:43;16.63;;;13.30;;
24801;SDS011;12898;50.520;12.152;2023-06-22T01:50:09;18.13;;;14.32;;
24801;SDS011;12898;50.520;12.152;2023-06-22T01:52:36;16.35;;;12.50;;
24801;SDS011;12898;50.520;12.152;2023-06-22T01:55:02;17.70;;;13.50;;
24801;SDS011;12898;50.520;12.152;2023-06-22T01:57:29;18.90;;;14.70;;
24801;SDS011;12898;50.520;12.152;2023-06-22T01:59:59;17.50;;;14.18;;
24801;SDS011;12898;50.520;12.152;2023-06-22T02:02:37;20.33;;;14.68;;
24801;SDS011;12898;50.520;12.152;2023-06-22T02:05:09;18.58;;;14.98;;
24801;SDS011;12898;50.520;12.152;2023-06-22T02:10:28;17.15;;;13.82;;
24801;SDS011;12898;50.520;12.152;2023-06-22T02:12:54;17.98;;;13.68;;
24801;SDS011;12898;50.520;12.152;2023-06-22T02:15:22;17.58;;;13.48;;
24801;SDS011;12898;50.520;12.152;2023-06-22T02:17:48;16.40;;;13.00;;
24801;SDS011;12898;50.520;12.152;2023-06-22T02:20:14;19.27;;;14.52;;
24801;SDS011;12898;50.520;12.152;2023-06-22T02:22:40;18.75;;;13.98;;
24801;SDS011;12898;50.520;12.152;2023-06-22T02:25:06;16.42;;;13.40;;
24801;SDS011;12898;50.520;12.152;2023-06-22T02:27:32;18.45;;;14.38;;
24801;SDS011;12898;50.520;12.152;2023-06-22T02:29:58;16.30;;;13.85;;
24801;SDS011;12898;50.520;12.152;2023-06-22T02:32:24;18.33;;;14.20;;
24801;SDS011;12898;50.520;12.152;2023-06-22T02:34:49;20.33;;;14.38;;
24801;SDS011;12898;50.520;12.152;2023-06-22T02:37:15;19.42;;;14.18;;
24801;SDS011;12898;50.520;12.152;2023-06-22T02:39:41;17.48;;;13.98;;
24801;SDS011;12898;50.520;12.152;2023-06-22T02:42:07;18.27;;;12.98;;
24801;SDS011;12898;50.520;12.152;2023-06-22T02:44:35;18.40;;;12.52;;
24801;SDS011;12898;50.520;12.152;2023-06-22T02:47:01;16.05;;;12.60;;
24801;SDS011;12898;50.520;12.152;2023-06-22T02:49:27;17.02;;;13.45;;
24801;SDS011;12898;50.520;12.152;2023-06-22T02:51:53;17.45;;;13.65;;
24801;SDS011;12898;50.520;12.152;2023-06-22T02:54:20;17.88;;;14.30;;
24801;SDS011;12898;50.520;12.152;2023-06-22T02:56:45;21.00;;;15.20;;
24801;SDS011;12898;50.520;12.152;2023-06-22T02:59:12;19.55;;;15.82;;
24801;SDS011;12898;50.520;12.152;2023-06-22T03:01:38;22.80;;;17.75;;
24801;SDS011;12898;50.520;12.152;2023-06-22T03:04:07;20.52;;;16.63;;
24801;SDS011;12898;50.520;12.152;2023-06-22T03:06:36;20.55;;;15.73;;
24801;SDS011;12898;50.520;12.152;2023-06-22T03:09:02;17.80;;;14.82;;
24801;SDS011;12898;50.520;12.152;2023-06-22T03:11:30;19.23;;;15.13;;
24801;SDS011;12898;50.520;12.152;2023-06-22T03:13:56;20.40;;;15.35;;
24801;SDS011;12898;50.520;12.152;2023-06-22T03:16:22;19.73;;;14.90;;
24801;SDS011;12898;50.520;12.152;2023-06-22T03:18:48;21.55;;;15.27;;
24801;SDS011;12898;50.520;12.152;2023-06-22T03:21:13;19.90;;;15.23;;
24801;SDS011;12898;50.520;12.152;2023-06-22T03:23:40;19.42;;;15.27;;
24801;SDS011;12898;50.520;12.152;2023-06-22T03:26:06;18.73;;;15.05;;
24801;SDS011;12898;50.520;12.152;2023-06-22T03:28:33;18.38;;;15.13;;
24801;SDS011;12898;50.520;12.152;2023-06-22T03:30:59;19.40;;;13.65;;
24801;SDS011;12898;50.520;12.152;2023-06-22T03:33:25;17.10;;;13.23;;
24801;SDS011;12898;50.520;12.152;2023-06-22T03:35:51;18.10;;;14.38;;
24801;SDS011;12898;50.520;12.152;2023-06-22T03:38:17;17.85;;;14.40;;
24801;SDS011;12898;50.520;12.152;2023-06-22T03:40:42;19.60;;;15.13;;
24801;SDS011;12898;50.520;12.152;2023-06-22T03:43:08;18.27;;;14.48;;
24801;SDS011;12898;50.520;12.152;2023-06-22T03:45:34;18.85;;;15.82;;
24801;SDS011;12898;50.520;12.152;2023-06-22T03:48:00;19.50;;;16.13;;
24801;SDS011;12898;50.520;12.152;2023-06-22T03:50:26;18.77;;;14.73;;
24801;SDS011;12898;50.520;12.152;2023-06-22T03:52:52;19.75;;;15.88;;
24801;SDS011;12898;50.520;12.152;2023-06-22T03:55:19;20.63;;;17.15;;
24801;SDS011;12898;50.520;12.152;2023-06-22T03:57:45;25.65;;;18.77;;
24801;SDS011;12898;50.520;12.152;2023-06-22T04:00:11;19.48;;;16.88;;
24801;SDS011;12898;50.520;12.152;2023-06-22T04:02:37;20.05;;;17.15;;
24801;SDS011;12898;50.520;12.152;2023-06-22T04:05:03;22.65;;;16.38;;
24801;SDS011;12898;50.520;12.152;2023-06-22T04:07:30;18.73;;;15.57;;
24801;SDS011;12898;50.520;12.152;2023-06-22T04:09:55;20.52;;;15.35;;
24801;SDS011;12898;50.520;12.152;2023-06-22T04:12:21;17.55;;;14.77;;
24801;SDS011;12898;50.520;12.152;2023-06-22T04:14:47;19.20;;;15.02;;
24801;SDS011;12898;50.520;12.152;2023-06-22T04:17:12;24.73;;;18.58;;
24801;SDS011;12898;50.520;12.152;2023-06-22T04:19:39;23.38;;;19.00;;
24801;SDS011;12898;50.520;12.152;2023-06-22T04:22:05;21.95;;;17.67;;
24801;SDS011;12898;50.520;12.152;2023-06-22T04:24:35;23.98;;;17.75;;
24801;SDS011;12898;50.520;12.152;2023-06-22T04:27:00;24.60;;;16.63;;
24801;SDS011;12898;50.520;12.152;2023-06-22T04:29:27;18.48;;;15.45;;
24801;SDS011;12898;50.520;12.152;2023-06-22T04:31:54;19.52;;;14.93;;
24801;SDS011;12898;50.520;12.152;2023-06-22T04:34:23;21.70;;;16.88;;
24801;SDS011;12898;50.520;12.152;2023-06-22T04:36:51;25.27;;;21.98;;
24801;SDS011;12898;50.520;12.152;2023-06-22T04:39:17;23.48;;;19.50;;
24801;SDS011;12898;50.520;12.152;2023-06-22T04:41:44;26.50;;;20.33;;
24801;SDS011;12898;50.520;12.152;2023-06-22T04:44:13;23.10;;;20.40;;
24801;SDS011;12898;50.520;12.152;2023-06-22T04:46:51;26.67;;;22.23;;
24801;SDS011;12898;50.520;12.152;2023-06-22T04:49:29;20.98;;;18.60;;
24801;SDS011;12898;50.520;12.152;2023-06-22T04:52:00;22.63;;;19.02;;
24801;SDS011;12898;50.520;12.152;2023-06-22T04:54:28;22.58;;;16.48;;
24801;SDS011;12898;50.520;12.152;2023-06-22T04:56:53;19.00;;;14.48;;
24801;SDS011;12898;50.520;12.152;2023-06-22T04:59:26;20.48;;;15.35;;
24801;SDS011;12898;50.520;12.152;2023-06-22T05:01:58;21.15;;;15.02;;
24801;SDS011;12898;50.520;12.152;2023-06-22T05:04:26;18.13;;;15.13;;
24801;SDS011;12898;50.520;12.152;2023-06-22T05:06:53;18.67;;;15.68;;
24801;SDS011;12898;50.520;12.152;2023-06-22T05:09:20;22.60;;;14.55;;
24801;SDS011;12898;50.520;12.152;2023-06-22T05:11:46;25.55;;;17.52;;
24801;SDS011;12898;50.520;12.152;2023-06-22T05:14:12;25.45;;;16.15;;
24801;SDS011;12898;50.520;12.152;2023-06-22T05:16:39;20.00;;;16.08;;
24801;SDS011;12898;50.520;12.152;2023-06-22T05:19:06;19.90;;;15.30;;
24801;SDS011;12898;50.520;12.152;2023-06-22T05:21:32;22.00;;;15.10;;
24801;SDS011;12898;50.520;12.152;2023-06-22T05:23:58;21.70;;;14.77;;
24801;SDS011;12898;50.520;12.152;2023-06-22T05:26:28;21.60;;;14.60;;
24801;SDS011;12898;50.520;12.152;2023-06-22T05:28:55;18.15;;;13.30;;
24801;SDS011;12898;50.520;12.152;2023-06-22T05:31:21;17.17;;;12.50;;
24801;SDS011;12898;50.520;12.152;2023-06-22T05:33:48;18.17;;;12.85;;
24801;SDS011;12898;50.520;12.152;2023-06-22T05:36:16;17.88;;;12.15;;
24801;SDS011;12898;50.520;12.152;2023-06-22T05:38:43;17.13;;;12.23;;
24801;SDS011;12898;50.520;12.152;2023-06-22T05:41:09;16.00;;;11.85;;
24801;SDS011;12898;50.520;12.152;2023-06-22T05:43:34;16.85;;;12.75;;
24801;SDS011;12898;50.520;12.152;2023-06-22T05:46:01;16.30;;;12.07;;
24801;SDS011;12898;50.520;12.152;2023-06-22T05:48:29;15.60;;;12.73;;
24801;SDS011;12898;50.520;12.152;2023-06-22T05:50:55;15.20;;;11.15;;
24801;SDS011;12898;50.520;12.152;2023-06-22T05:53:20;21.92;;;13.13;;
24801;SDS011;12898;50.520;12.152;2023-06-22T05:55:46;16.38;;;11.98;;
24801;SDS011;12898;50.520;12.152;2023-06-22T05:58:12;18.13;;;12.45;;
24801;SDS011;12898;50.520;12.152;2023-06-22T06:00:40;17.52;;;12.50;;
24801;SDS011;12898;50.520;12.152;2023-06-22T06:03:08;15.48;;;11.55;;
24801;SDS011;12898;50.520;12.152;2023-06-22T06:05:34;17.08;;;12.75;;
24801;SDS011;12898;50.520;12.152;2023-06-22T06:08:00;19.88;;;12.73;;
24801;SDS011;12898;50.520;12.152;2023-06-22T06:10:29;18.30;;;11.50;;
24801;SDS011;12898;50.520;12.152;2023-06-22T06:12:56;15.57;;;12.35;;
24801;SDS011;12898;50.520;12.152;2023-06-22T06:15:22;16.20;;;11.93;;
24801;SDS011;12898;50.520;12.152;2023-06-22T06:17:51;15.50;;;11.65;;
24801;SDS011;12898;50.520;12.152;2023-06-22T06:20:18;14.75;;;11.55;;
24801;SDS011;12898;50.520;12.152;2023-06-22T06:22:46;14.73;;;11.52;;
24801;SDS011;12898;50.520;12.152;2023-06-22T06:25:12;17.48;;;11.02;;
24801;SDS011;12898;50.520;12.152;2023-06-22T06:27:41;18.33;;;11.77;;
24801;SDS011;12898;50.520;12.152;2023-06-22T06:30:15;16.52;;;10.85;;
24801;SDS011;12898;50.520;12.152;2023-06-22T06:32:43;13.93;;;10.68;;
24801;SDS011;12898;50.520;12.152;2023-06-22T06:35:10;14.73;;;10.88;;
24801;SDS011;12898;50.520;12.152;2023-06-22T06:37:38;13.98;;;10.52;;
24801;SDS011;12898;50.520;12.152;2023-06-22T06:40:09;13.77;;;10.23;;
24801;SDS011;12898;50.520;12.152;2023-06-22T06:42:39;13.57;;;9.88;;
24801;SDS011;12898;50.520;12.152;2023-06-22T06:45:09;14.20;;;10.20;;
24801;SDS011;12898;50.520;12.152;2023-06-22T06:47:41;14.93;;;10.00;;
24801;SDS011;12898;50.520;12.152;2023-06-22T06:50:07;14.38;;;10.27;;
24801;SDS011;12898;50.520;12.152;2023-06-22T06:52:34;14.68;;;10.57;;
24801;SDS011;12898;50.520;12.152;2023-06-22T06:55:00;13.23;;;10.20;;
24801;SDS011;12898;50.520;12.152;2023-06-22T06:57:26;15.55;;;9.70;;
24801;SDS011;12898;50.520;12.152;2023-06-22T06:59:53;13.02;;;9.70;;
24801;SDS011;12898;50.520;12.152;2023-06-22T07:02:22;13.27;;;9.73;;
24801;SDS011;12898;50.520;12.152;2023-06-22T07:04:49;14.55;;;10.25;;
24801;SDS011;12898;50.520;12.152;2023-06-22T07:07:14;13.98;;;9.52;;
24801;SDS011;12898;50.520;12.152;2023-06-22T07:09:40;14.05;;;9.45;;
24801;SDS011;12898;50.520;12.152;2023-06-22T07:12:06;13.90;;;9.57;;
24801;SDS011;12898;50.520;12.152;2023-06-22T07:14:32;14.82;;;10.05;;
24801;SDS011;12898;50.520;12.152;2023-06-22T07:16:58;13.68;;;9.68;;
24801;SDS011;12898;50.520;12.152;2023-06-22T07:19:24;13.88;;;9.43;;
24801;SDS011;12898;50.520;12.152;2023-06-22T07:21:51;14.48;;;10.13;;
24801;SDS011;12898;50.520;12.152;2023-06-22T07:24:18;15.35;;;10.38;;
24801;SDS011;12898;50.520;12.152;2023-06-22T07:26:45;12.65;;;8.95;;
24801;SDS011;12898;50.520;12.152;2023-06-22T07:29:13;13.20;;;8.55;;
24801;SDS011;12898;50.520;12.152;2023-06-22T07:31:39;13.52;;;9.75;;
24801;SDS011;12898;50.520;12.152;2023-06-22T07:34:06;14.02;;;9.65;;
24801;SDS011;12898;50.520;12.152;2023-06-22T07:36:31;13.65;;;9.80;;
24801;SDS011;12898;50.520;12.152;2023-06-22T07:38:57;14.48;;;9.48;;
24801;SDS011;12898;50.520;12.152;2023-06-22T07:41:23;13.38;;;9.25;;
24801;SDS011;12898;50.520;12.152;2023-06-22T07:43:48;12.25;;;9.23;;
24801;SDS011;12898;50.520;12.152;2023-06-22T07:46:15;12.60;;;8.90;;
24801;SDS011;12898;50.520;12.152;2023-06-22T07:48:40;13.30;;;9.07;;
24801;SDS011;12898;50.520;12.152;2023-06-22T07:51:08;12.07;;;8.75;;
24801;SDS011;12898;50.520;12.152;2023-06-22T07:53:34;11.52;;;8.15;;
24801;SDS011;12898;50.520;12.152;2023-06-22T07:56:01;18.77;;;8.65;;
24801;SDS011;12898;50.520;12.152;2023-06-22T07:58:31;11.45;;;8.18;;
24801;SDS011;12898;50.520;12.152;2023-06-22T08:00:58;11.77;;;8.45;;
24801;SDS011;12898;50.520;12.152;2023-06-22T08:03:24;11.80;;;8.02;;
24801;SDS011;12898;50.520;12.152;2023-06-22T08:05:49;11.93;;;8.35;;
24801;SDS011;12898;50.520;12.152;2023-06-22T08:08:15;11.35;;;8.57;;
24801;SDS011;12898;50.520;12.152;2023-06-22T08:10:41;11.10;;;8.52;;
24801;SDS011;12898;50.520;12.152;2023-06-22T08:13:08;13.73;;;8.90;;
24801;SDS011;12898;50.520;12.152;2023-06-22T08:15:33;10.05;;;7.78;;
24801;SDS011;12898;50.520;12.152;2023-06-22T08:17:59;11.68;;;7.72;;
24801;SDS011;12898;50.520;12.152;2023-06-22T08:20:25;14.30;;;8.00;;
24801;SDS011;12898;50.520;12.152;2023-06-22T08:22:52;11.50;;;7.45;;
24801;SDS011;12898;50.520;12.152;2023-06-22T08:25:19;14.15;;;7.57;;
24801;SDS011;12898;50.520;12.152;2023-06-22T08:27:46;11.57;;;7.60;;
24801;SDS011;12898;50.520;12.152;2023-06-22T08:30:15;14.02;;;9.20;;
24801;SDS011;12898;50.520;12.152;2023-06-22T08:32:43;12.07;;;8.70;;
24801;SDS011;12898;50.520;12.152;2023-06-22T08:35:09;14.45;;;10.52;;
24801;SDS011;12898;50.520;12.152;2023-06-22T08:37:36;15.90;;;9.77;;
24801;SDS011;12898;50.520;12.152;2023-06-22T08:40:04;12.38;;;9.45;;
24801;SDS011;12898;50.520;12.152;2023-06-22T08:42:39;13.13;;;8.77;;
24801;SDS011;12898;50.520;12.152;2023-06-22T08:45:06;13.93;;;8.27;;
24801;SDS011;12898;50.520;12.152;2023-06-22T08:47:32;11.68;;;8.80;;
24801;SDS011;12898;50.520;12.152;2023-06-22T08:49:58;11.43;;;7.78;;
24801;SDS011;12898;50.520;12.152;2023-06-22T08:52:24;10.35;;;8.38;;
24801;SDS011;12898;50.520;12.152;2023-06-22T08:54:50;12.05;;;7.47;;
24801;SDS011;12898;50.520;12.152;2023-06-22T08:57:16;12.10;;;7.93;;
24801;SDS011;12898;50.520;12.152;2023-06-22T08:59:42;12.73;;;8.02;;
24801;SDS011;12898;50.520;12.152;2023-06-22T09:02:08;11.13;;;7.20;;
24801;SDS011;12898;50.520;12.152;2023-06-22T09:04:34;10.25;;;7.70;;
24801;SDS011;12898;50.520;12.152;2023-06-22T09:07:00;10.75;;;7.90;;
24801;SDS011;12898;50.520;12.152;2023-06-22T09:09:26;11.38;;;7.60;;
24801;SDS011;12898;50.520;12.152;2023-06-22T09:11:52;10.38;;;7.70;;
24801;SDS011;12898;50.520;12.152;2023-06-22T09:14:18;13.05;;;7.47;;
24801;SDS011;12898;50.520;12.152;2023-06-22T09:16:43;13.55;;;7.68;;
24801;SDS011;12898;50.520;12.152;2023-06-22T09:19:09;11.68;;;8.05;;
24801;SDS011;12898;50.520;12.152;2023-06-22T09:21:35;12.02;;;8.05;;
24801;SDS011;12898;50.520;12.152;2023-06-22T09:24:01;9.82;;;7.80;;
24801;SDS011;12898;50.520;12.152;2023-06-22T09:26:27;10.52;;;7.95;;
24801;SDS011;12898;50.520;12.152;2023-06-22T09:28:53;10.68;;;7.85;;
24801;SDS011;12898;50.520;12.152;2023-06-22T09:31:19;10.70;;;8.05;;
24801;SDS011;12898;50.520;12.152;2023-06-22T09:33:53;12.80;;;7.97;;
24801;SDS011;12898;50.520;12.152;2023-06-22T09:36:19;9.52;;;7.63;;
24801;SDS011;12898;50.520;12.152;2023-06-22T09:38:47;13.23;;;7.80;;
24801;SDS011;12898;50.520;12.152;2023-06-22T09:41:14;10.90;;;8.00;;
24801;SDS011;12898;50.520;12.152;2023-06-22T09:43:40;17.92;;;8.02;;
24801;SDS011;12898;50.520;12.152;2023-06-22T09:46:06;9.75;;;7.85;;
24801;SDS011;12898;50.520;12.152;2023-06-22T09:48:32;10.07;;;7.57;;
24801;SDS011;12898;50.520;12.152;2023-06-22T09:50:57;11.35;;;8.48;;
24801;SDS011;12898;50.520;12.152;2023-06-22T09:53:23;10.45;;;7.68;;
24801;SDS011;12898;50.520;12.152;2023-06-22T09:55:49;10.02;;;7.25;;
24801;SDS011;12898;50.520;12.152;2023-06-22T09:58:15;10.50;;;7.40;;
24801;SDS011;12898;50.520;12.152;2023-06-22T10:00:40;11.32;;;7.38;;
24801;SDS011;12898;50.520;12.152;2023-06-22T10:03:06;12.05;;;7.57;;
24801;SDS011;12898;50.520;12.152;2023-06-22T10:05:32;11.93;;;7.55;;
24801;SDS011;12898;50.520;12.152;2023-06-22T10:07:58;12.13;;;7.72;;
24801;SDS011;12898;50.520;12.152;2023-06-22T10:10:24;9.80;;;7.38;;
24801;SDS011;12898;50.520;12.152;2023-06-22T10:12:56;10.38;;;7.38;;
24801;SDS011;12898;50.520;12.152;2023-06-22T10:15:27;9.77;;;7.47;;
24801;SDS011;12898;50.520;12.152;2023-06-22T10:17:54;10.52;;;7.40;;
24801;SDS011;12898;50.520;12.152;2023-06-22T10:20:22;11.13;;;7.10;;
24801;SDS011;12898;50.520;12.152;2023-06-22T10:22:49;11.65;;;7.72;;
24801;SDS011;12898;50.520;12.152;2023-06-22T10:25:17;9.35;;;8.02;;
24801;SDS011;12898;50.520;12.152;2023-06-22T10:27:44;10.98;;;7.38;;
24801;SDS011;12898;50.520;12.152;2023-06-22T10:30:10;9.93;;;7.50;;
24801;SDS011;12898;50.520;12.152;2023-06-22T10:32:41;10.43;;;7.07;;
24801;SDS011;12898;50.520;12.152;2023-06-22T10:35:10;10.38;;;7.07;;
24801;SDS011;12898;50.520;12.152;2023-06-22T10:37:38;10.27;;;7.30;;
24801;SDS011;12898;50.520;12.152;2023-06-22T10:40:04;11.75;;;9.10;;
24801;SDS011;12898;50.520;12.152;2023-06-22T10:42:30;10.30;;;7.35;;
24801;SDS011;12898;50.520;12.152;2023-06-22T10:44:56;10.77;;;7.07;;
24801;SDS011;12898;50.520;12.152;2023-06-22T10:47:22;10.23;;;7.22;;
24801;SDS011;12898;50.520;12.152;2023-06-22T10:49:47;12.15;;;7.68;;
24801;SDS011;12898;50.520;12.152;2023-06-22T10:52:13;12.38;;;6.75;;
24801;SDS011;12898;50.520;12.152;2023-06-22T10:54:39;9.98;;;7.55;;
24801;SDS011;12898;50.520;12.152;2023-06-22T10:57:04;10.45;;;7.20;;
24801;SDS011;12898;50.520;12.152;2023-06-22T10:59:30;11.80;;;7.30;;
24801;SDS011;12898;50.520;12.152;2023-06-22T11:01:56;9.70;;;7.40;;
24801;SDS011;12898;50.520;12.152;2023-06-22T11:04:23;10.07;;;6.68;;
24801;SDS011;12898;50.520;12.152;2023-06-22T11:06:49;9.35;;;6.68;;
24801;SDS011;12898;50.520;12.152;2023-06-22T11:09:16;8.50;;;6.40;;
24801;SDS011;12898;50.520;12.152;2023-06-22T11:11:47;9.63;;;6.50;;
24801;SDS011;12898;50.520;12.152;2023-06-22T11:14:16;10.43;;;6.78;;
24801;SDS011;12898;50.520;12.152;2023-06-22T11:16:41;9.68;;;6.88;;
24801;SDS011;12898;50.520;12.152;2023-06-22T11:19:07;11.10;;;6.60;;
24801;SDS011;12898;50.520;12.152;2023-06-22T11:21:33;7.97;;;6.40;;
24801;SDS011;12898;50.520;12.152;2023-06-22T11:23:59;11.05;;;6.93;;
24801;SDS011;12898;50.520;12.152;2023-06-22T11:26:25;8.23;;;6.63;;
24801;SDS011;12898;50.520;12.152;2023-06-22T11:28:52;10.73;;;6.60;;
24801;SDS011;12898;50.520;12.152;2023-06-22T11:31:18;9.55;;;6.72;;
24801;SDS011;12898;50.520;12.152;2023-06-22T11:33:44;9.48;;;6.60;;
24801;SDS011;12898;50.520;12.152;2023-06-22T11:36:11;9.32;;;6.55;;
24801;SDS011;12898;50.520;12.152;2023-06-22T11:38:36;8.65;;;6.47;;
24801;SDS011;12898;50.520;12.152;2023-06-22T11:41:05;9.85;;;6.15;;
24801;SDS011;12898;50.520;12.152;2023-06-22T11:43:31;10.95;;;6.38;;
24801;SDS011;12898;50.520;12.152;2023-06-22T11:45:57;8.35;;;6.18;;
24801;SDS011;12898;50.520;12.152;2023-06-22T11:48:23;10.23;;;6.60;;
24801;SDS011;12898;50.520;12.152;2023-06-22T11:50:50;8.90;;;6.57;;
24801;SDS011;12898;50.520;12.152;2023-06-22T11:53:15;9.70;;;6.82;;
24801;SDS011;12898;50.520;12.152;2023-06-22T11:55:42;11.40;;;6.45;;
24801;SDS011;12898;50.520;12.152;2023-06-22T11:58:09;12.25;;;6.38;;
24801;SDS011;12898;50.520;12.152;2023-06-22T12:00:35;8.63;;;6.68;;
24801;SDS011;12898;50.520;12.152;2023-06-22T12:03:00;9.05;;;6.40;;
24801;SDS011;12898;50.520;12.152;2023-06-22T12:05:26;10.68;;;6.43;;
24801;SDS011;12898;50.520;12.152;2023-06-22T12:07:54;8.93;;;6.10;;
24801;SDS011;12898;50.520;12.152;2023-06-22T12:10:21;9.35;;;6.10;;
24801;SDS011;12898;50.520;12.152;2023-06-22T12:12:47;9.77;;;6.40;;
24801;SDS011;12898;50.520;12.152;2023-06-22T12:15:13;11.30;;;6.15;;
24801;SDS011;12898;50.520;12.152;2023-06-22T12:17:39;11.65;;;5.70;;
24801;SDS011;12898;50.520;12.152;2023-06-22T12:20:06;9.73;;;5.85;;
24801;SDS011;12898;50.520;12.152;2023-06-22T12:22:33;11.00;;;5.93;;
24801;SDS011;12898;50.520;12.152;2023-06-22T12:24:59;8.02;;;6.10;;
24801;SDS011;12898;50.520;12.152;2023-06-22T12:27:25;8.40;;;5.90;;
24801;SDS011;12898;50.520;12.152;2023-06-22T12:29:51;9.05;;;6.03;;
24801;SDS011;12898;50.520;12.152;2023-06-22T12:32:17;11.40;;;6.53;;
24801;SDS011;12898;50.520;12.152;2023-06-22T12:34:43;12.18;;;6.20;;
24801;SDS011;12898;50.520;12.152;2023-06-22T12:37:09;8.52;;;6.03;;
24801;SDS011;12898;50.520;12.152;2023-06-22T12:39:35;8.52;;;5.97;;
24801;SDS011;12898;50.520;12.152;2023-06-22T12:42:01;9.65;;;6.40;;
24801;SDS011;12898;50.520;12.152;2023-06-22T12:44:28;8.95;;;6.30;;
24801;SDS011;12898;50.520;12.152;2023-06-22T12:46:53;10.80;;;6.28;;
24801;SDS011;12898;50.520;12.152;2023-06-22T12:49:19;11.20;;;6.40;;
24801;SDS011;12898;50.520;12.152;2023-06-22T12:51:45;10.30;;;6.22;;
24801;SDS011;12898;50.520;12.152;2023-06-22T12:54:10;8.80;;;6.18;;
24801;SDS011;12898;50.520;12.152;2023-06-22T12:56:37;8.40;;;5.90;;
24801;SDS011;12898;50.520;12.152;2023-06-22T12:59:03;12.02;;;6.18;;
24801;SDS011;12898;50.520;12.152;2023-06-22T13:01:31;9.48;;;6.07;;
24801;SDS011;12898;50.520;12.152;2023-06-22T13:03:57;9.38;;;6.22;;
24801;SDS011;12898;50.520;12.152;2023-06-22T13:06:23;11.00;;;6.65;;
24801;SDS011;12898;50.520;12.152;2023-06-22T13:08:49;7.50;;;5.78;;
24801;SDS011;12898;50.520;12.152;2023-06-22T13:11:15;9.68;;;6.38;;
24801;SDS011;12898;50.520;12.152;2023-06-22T13:13:41;14.88;;;6.35;;
24801;SDS011;12898;50.520;12.152;2023-06-22T13:16:07;10.32;;;6.25;;
24801;SDS011;12898;50.520;12.152;2023-06-22T13:18:33;11.05;;;6.65;;
24801;SDS011;12898;50.520;12.152;2023-06-22T13:21:00;10.15;;;7.05;;
24801;SDS011;12898;50.520;12.152;2023-06-22T13:23:29;11.40;;;6.45;;
24801;SDS011;12898;50.520;12.152;2023-06-22T13:25:55;11.70;;;6.60;;
24801;SDS011;12898;50.520;12.152;2023-06-22T13:28:22;9.93;;;6.32;;
24801;SDS011;12898;50.520;12.152;2023-06-22T13:30:48;12.63;;;6.50;;
24801;SDS011;12898;50.520;12.152;2023-06-22T13:33:14;9.15;;;6.38;;
24801;SDS011;12898;50.520;12.152;2023-06-22T13:35:40;10.60;;;6.90;;
24801;SDS011;12898;50.520;12.152;2023-06-22T13:38:07;8.57;;;6.50;;
24801;SDS011;12898;50.520;12.152;2023-06-22T13:40:36;10.77;;;6.28;;
24801;SDS011;12898;50.520;12.152;2023-06-22T13:43:05;8.88;;;6.15;;
24801;SDS011;12898;50.520;12.152;2023-06-22T13:45:31;12.13;;;6.40;;
24801;SDS011;12898;50.520;12.152;2023-06-22T13:47:57;12.88;;;6.30;;
24801;SDS011;12898;50.520;12.152;2023-06-22T13:50:23;12.18;;;6.53;;
24801;SDS011;12898;50.520;12.152;2023-06-22T13:52:48;17.95;;;5.88;;
24801;SDS011;12898;50.520;12.152;2023-06-22T13:55:14;11.45;;;6.05;;
24801;SDS011;12898;50.520;12.152;2023-06-22T13:57:40;20.88;;;6.47;;
24801;SDS011;12898;50.520;12.152;2023-06-22T14:00:08;10.02;;;6.20;;
24801;SDS011;12898;50.520;12.152;2023-06-22T14:02:34;11.55;;;6.47;;
24801;SDS011;12898;50.520;12.152;2023-06-22T14:05:00;11.07;;;6.57;;
24801;SDS011;12898;50.520;12.152;2023-06-22T14:07:27;10.45;;;6.10;;
24801;SDS011;12898;50.520;12.152;2023-06-22T14:09:53;10.55;;;5.97;;
24801;SDS011;12898;50.520;12.152;2023-06-22T14:12:18;10.50;;;6.72;;
24801;SDS011;12898;50.520;12.152;2023-06-22T14:14:44;11.32;;;6.93;;
24801;SDS011;12898;50.520;12.152;2023-06-22T14:17:10;9.60;;;6.18;;
24801;SDS011;12898;50.520;12.152;2023-06-22T14:19:36;12.05;;;6.47;;
24801;SDS011;12898;50.520;12.152;2023-06-22T14:22:02;11.20;;;5.97;;
24801;SDS011;12898;50.520;12.152;2023-06-22T14:24:28;11.05;;;6.03;;
24801;SDS011;12898;50.520;12.152;2023-06-22T14:26:54;14.70;;;7.15;;
24801;SDS011;12898;50.520;12.152;2023-06-22T14:29:20;11.30;;;6.65;;